createdAt,value
2023-11-25T00:02:06.532Z,98015.75
2023-11-25T00:04:39.906Z,98022.03
2023-11-25T00:07:12.347Z,98028.38
2023-11-25T00:09:44.935Z,98030.88
2023-11-25T00:12:17.872Z,98021.56
2023-11-25T00:14:50.795Z,98029.19
2023-11-25T00:17:24.897Z,98020.44
2023-11-25T00:20:00.596Z,98027.61
2023-11-25T00:22:33.436Z,98025.92
2023-11-25T00:25:07.216Z,98034.44
2023-11-25T00:27:39.829Z,98030.56
2023-11-25T00:30:13.386Z,98029.02
2023-11-25T00:32:46.179Z,98022.47
2023-11-25T00:35:19.569Z,98033.55
2023-11-25T00:37:51.981Z,98035.78
2023-11-25T00:40:26.373Z,98030.22
2023-11-25T00:42:58.944Z,98031.12
2023-11-25T00:45:31.677Z,98035.20
2023-11-25T00:48:04.527Z,98037.36
2023-11-25T00:50:37.382Z,98041.09
2023-11-25T00:53:10.070Z,98033.54
2023-11-25T00:55:42.760Z,98038.36
2023-11-25T00:58:15.176Z,98035.23
2023-11-25T01:00:48.112Z,98030.34
2023-11-25T01:03:20.818Z,98033.73
2023-11-25T01:05:54.556Z,98035.09
2023-11-25T01:08:30.481Z,98030.38
2023-11-25T01:11:03.364Z,98038.16
2023-11-25T01:13:36.118Z,98053.50
2023-11-25T01:16:17.801Z,98049.63
2023-11-25T01:18:50.179Z,98043.08
2023-11-25T01:21:22.923Z,98041.74
2023-11-25T01:23:55.447Z,98043.94
2023-11-25T01:26:27.789Z,98048.58
2023-11-25T01:29:00.198Z,98044.17
2023-11-25T01:31:33.377Z,98041.55
2023-11-25T01:34:06.151Z,98033.83
2023-11-25T01:36:39.114Z,98036.70
2023-11-25T01:39:11.793Z,98034.03
2023-11-25T01:41:48.285Z,98037.70
2023-11-25T01:44:21.001Z,98039.38
2023-11-25T01:46:54.019Z,98053.95
2023-11-25T01:49:27.141Z,98049.73
2023-11-25T01:52:01.093Z,98057.48
2023-11-25T01:54:33.968Z,98067.06
2023-11-25T01:57:06.677Z,98076.55
2023-11-25T01:59:39.138Z,98081.30
2023-11-25T02:02:12.675Z,98083.56
2023-11-25T02:04:45.528Z,98084.63
2023-11-25T02:07:18.155Z,98086.92
2023-11-25T02:09:50.735Z,98093.86
2023-11-25T02:12:23.387Z,98095.41
2023-11-25T02:14:55.749Z,98090.06
2023-11-25T02:17:28.745Z,98094.69
2023-11-25T02:20:03.757Z,98102.50
2023-11-25T02:22:37.429Z,98110.44
2023-11-25T02:25:10.367Z,98117.98
2023-11-25T02:27:43.291Z,98126.02
2023-11-25T02:30:15.945Z,98126.41
2023-11-25T02:32:48.398Z,98123.41
2023-11-25T02:35:22.228Z,98130.73
2023-11-25T02:37:55.167Z,98127.77
2023-11-25T02:40:27.845Z,98134.17
2023-11-25T02:43:00.453Z,98131.92
2023-11-25T02:45:33.527Z,98131.20
2023-11-25T02:48:07.387Z,98143.61
2023-11-25T02:50:40.262Z,98148.96
2023-11-25T02:53:13.038Z,98152.12
2023-11-25T02:55:46.156Z,98165.48
2023-11-25T02:58:18.653Z,98162.69
2023-11-25T03:00:53.101Z,98159.40
2023-11-25T03:03:25.993Z,98152.71
2023-11-25T03:06:00.731Z,98157.55
2023-11-25T03:08:35.329Z,98154.17
2023-11-25T03:11:10.024Z,98159.15
2023-11-25T03:13:43.101Z,98166.40
2023-11-25T03:16:17.398Z,98176.62
2023-11-25T03:18:49.260Z,98170.25
2023-11-25T03:21:22.290Z,98173.32
2023-11-25T03:23:54.680Z,98179.05
2023-11-25T03:26:27.591Z,98189.53
2023-11-25T03:29:00.214Z,98184.23
2023-11-25T03:31:34.789Z,98178.06
2023-11-25T03:34:07.249Z,98184.02
2023-11-25T03:36:39.918Z,98184.14
2023-11-25T03:39:14.129Z,98183.97
2023-11-25T03:41:46.346Z,98185.05
2023-11-25T03:44:18.725Z,98194.15
2023-11-25T03:46:51.338Z,98186.98
2023-11-25T03:49:24.584Z,98178.45
2023-11-25T03:51:57.595Z,98179.27
2023-11-25T03:54:29.992Z,98184.66
2023-11-25T03:57:02.458Z,98189.34
2023-11-25T03:59:35.299Z,98202.41
2023-11-25T04:02:08.458Z,98203.01
2023-11-25T04:04:41.389Z,98213.70
2023-11-25T04:07:14.413Z,98212.59
2023-11-25T04:09:47.056Z,98222.38
2023-11-25T04:12:19.394Z,98238.69
2023-11-25T04:14:52.127Z,98241.79
2023-11-25T04:17:24.784Z,98244.68
2023-11-25T04:19:58.505Z,98241.88
2023-11-25T04:22:31.317Z,98238.59
2023-11-25T04:25:04.506Z,98243.00
2023-11-25T04:27:37.286Z,98254.31
2023-11-25T04:30:11.710Z,98254.09
2023-11-25T04:32:45.287Z,98263.59
2023-11-25T04:35:18.558Z,98261.16
2023-11-25T04:37:52.155Z,98255.17
2023-11-25T04:40:25.524Z,98247.14
2023-11-25T04:42:57.854Z,98239.11
2023-11-25T04:45:30.709Z,98227.07
2023-11-25T04:48:03.428Z,98232.34
2023-11-25T04:50:36.035Z,98234.81
2023-11-25T04:53:11.175Z,98236.20
2023-11-25T04:55:43.759Z,98235.63
2023-11-25T04:58:16.882Z,98234.91
2023-11-25T05:00:49.685Z,98233.95
2023-11-25T05:03:24.417Z,98245.78
2023-11-25T05:05:57.036Z,98253.58
2023-11-25T05:08:29.748Z,98264.41
2023-11-25T05:11:02.407Z,98271.48
2023-11-25T05:13:35.650Z,98277.82
2023-11-25T05:16:09.640Z,98294.41
2023-11-25T05:18:44.377Z,98302.69
2023-11-25T05:21:17.273Z,98314.23
2023-11-25T05:23:50.884Z,98324.33
2023-11-25T05:26:25.165Z,98324.93
2023-11-25T05:28:58.220Z,98331.52
2023-11-25T05:31:30.925Z,98334.19
2023-11-25T05:34:08.599Z,98323.14
2023-11-25T05:36:41.741Z,98316.59
2023-11-25T05:39:16.451Z,98312.95
2023-11-25T05:41:51.733Z,98326.57
2023-11-25T05:44:25.929Z,98325.38
2023-11-25T05:46:59.036Z,98312.13
2023-11-25T05:49:31.567Z,98318.71
2023-11-25T05:52:04.720Z,98324.30
2023-11-25T05:54:37.279Z,98339.73
2023-11-25T05:57:11.033Z,98333.80
2023-11-25T05:59:44.581Z,98314.10
2023-11-25T06:02:17.583Z,98306.69
2023-11-25T06:04:50.631Z,98321.13
2023-11-25T06:07:23.603Z,98315.69
2023-11-25T06:09:57.045Z,98321.28
2023-11-25T06:12:29.517Z,98325.04
2023-11-25T06:15:02.028Z,98350.81
2023-11-25T06:17:35.361Z,98342.44
2023-11-25T06:20:09.734Z,98330.78
2023-11-25T06:22:42.477Z,98321.05
2023-11-25T06:25:15.748Z,98311.03
2023-11-25T06:27:48.634Z,98296.44
2023-11-25T06:30:24.732Z,98290.20
2023-11-25T06:32:57.351Z,98285.23
2023-11-25T06:35:30.859Z,98295.21
2023-11-25T06:38:04.917Z,98298.73
2023-11-25T06:40:38.899Z,98303.11
2023-11-25T06:43:14.333Z,98297.88
2023-11-25T06:45:45.589Z,98311.88
2023-11-25T06:48:24.691Z,98328.21
2023-11-25T06:51:00.632Z,98340.64
2023-11-25T06:53:33.396Z,98346.52
2023-11-25T06:56:07.768Z,98357.81
2023-11-25T06:58:40.564Z,98352.97
2023-11-25T07:01:20.986Z,98347.58
2023-11-25T07:03:54.106Z,98331.32
2023-11-25T07:06:26.857Z,98316.55
2023-11-25T07:09:01.605Z,98317.48
2023-11-25T07:11:35.528Z,98325.26
2023-11-25T07:14:09.739Z,98330.07
2023-11-25T07:16:42.390Z,98319.56
2023-11-25T07:19:16.010Z,98337.05
2023-11-25T07:21:48.724Z,98334.67
2023-11-25T07:24:21.208Z,98347.90
2023-11-25T07:26:56.549Z,98353.16
2023-11-25T07:29:30.905Z,98351.39
2023-11-25T07:32:03.800Z,98352.21
2023-11-25T07:34:37.476Z,98361.36
2023-11-25T07:37:11.066Z,98362.19
2023-11-25T07:39:43.804Z,98365.38
2023-11-25T07:42:17.074Z,98370.16
2023-11-25T07:44:49.906Z,98376.91
2023-11-25T07:47:23.727Z,98370.64
2023-11-25T07:49:56.330Z,98371.66
2023-11-25T07:52:29.330Z,98379.26
2023-11-25T07:55:02.827Z,98384.89
2023-11-25T07:57:36.175Z,98381.00
2023-11-25T08:00:11.523Z,98395.30
2023-11-25T08:02:49.812Z,98395.75
2023-11-25T08:05:25.848Z,98400.41
2023-11-25T08:07:58.722Z,98389.33
2023-11-25T08:10:33.061Z,98381.53
2023-11-25T08:13:05.891Z,98383.27
2023-11-25T08:15:38.597Z,98395.16
2023-11-25T08:18:11.266Z,98390.42
2023-11-25T08:20:44.203Z,98388.53
2023-11-25T08:23:17.310Z,98384.41
2023-11-25T08:25:50.848Z,98384.13
2023-11-25T08:28:23.516Z,98383.08
2023-11-25T08:30:55.878Z,98377.28
2023-11-25T08:33:28.653Z,98376.34
2023-11-25T08:36:01.694Z,98379.22
2023-11-25T08:38:34.616Z,98379.84
2023-11-25T08:41:10.101Z,98380.92
2023-11-25T08:43:45.032Z,98385.70
2023-11-25T08:46:19.207Z,98374.50
2023-11-25T08:48:53.338Z,98374.08
2023-11-25T08:51:26.326Z,98379.53
2023-11-25T08:53:58.799Z,98381.60
2023-11-25T08:56:37.041Z,98382.26
2023-11-25T08:59:07.750Z,98380.24
2023-11-25T09:01:41.342Z,98389.44
2023-11-25T09:04:16.036Z,98383.93
2023-11-25T09:06:50.866Z,98384.03
2023-11-25T09:09:23.957Z,98389.89
2023-11-25T09:11:56.381Z,98380.16
2023-11-25T09:14:30.792Z,98373.53
2023-11-25T09:17:03.590Z,98368.66
2023-11-25T09:19:36.271Z,98362.17
2023-11-25T09:22:09.508Z,98366.39
2023-11-25T09:24:43.543Z,98375.09
2023-11-25T09:27:16.070Z,98377.55
2023-11-25T09:29:49.146Z,98383.07
2023-11-25T09:32:23.259Z,98386.69
2023-11-25T09:34:57.618Z,98385.22
2023-11-25T09:37:30.029Z,98399.20
2023-11-25T09:40:07.294Z,98402.52
2023-11-25T09:42:39.989Z,98415.34
2023-11-25T09:45:14.184Z,98416.33
2023-11-25T09:47:46.971Z,98412.83
2023-11-25T09:50:21.330Z,98412.95
2023-11-25T09:52:57.351Z,98411.19
2023-11-25T09:55:30.658Z,98410.67
2023-11-25T09:58:11.459Z,98403.02
2023-11-25T10:00:43.810Z,98404.65
2023-11-25T10:03:16.646Z,98397.22
2023-11-25T10:05:49.414Z,98403.34
2023-11-25T10:08:25.938Z,98401.63
2023-11-25T10:11:09.026Z,98396.22
2023-11-25T10:13:43.351Z,98395.11
2023-11-25T10:16:17.799Z,98400.95
2023-11-25T10:18:53.512Z,98404.23
2023-11-25T10:21:26.918Z,98391.33
2023-11-25T10:24:05.057Z,98391.23
2023-11-25T10:26:40.486Z,98385.15
2023-11-25T10:29:15.131Z,98391.36
2023-11-25T10:31:46.991Z,98397.10
2023-11-25T10:34:21.088Z,98414.09
2023-11-25T10:36:53.087Z,98409.95
2023-11-25T10:39:26.284Z,98412.34
2023-11-25T10:41:59.704Z,98412.09
2023-11-25T10:44:32.949Z,98415.92
2023-11-25T10:47:06.808Z,98426.92
2023-11-25T10:49:40.516Z,98409.22
2023-11-25T10:52:13.713Z,98404.58
2023-11-25T10:54:46.821Z,98407.56
2023-11-25T10:57:25.231Z,98418.69
2023-11-25T10:59:59.766Z,98414.88
2023-11-25T11:02:39.814Z,98421.16
2023-11-25T11:05:12.571Z,98427.12
2023-11-25T11:07:49.123Z,98419.38
2023-11-25T11:10:29.273Z,98417.41
2023-11-25T11:13:09.959Z,98418.70
2023-11-25T11:15:42.288Z,98418.64
2023-11-25T11:18:19.979Z,98421.86
2023-11-25T11:20:52.989Z,98424.94
2023-11-25T11:23:25.416Z,98422.30
2023-11-25T11:26:29.047Z,98434.92
2023-11-25T11:29:25.415Z,98436.20
2023-11-25T11:32:09.550Z,98437.14
2023-11-25T11:34:43.572Z,98444.77
2023-11-25T11:37:16.700Z,98450.25
2023-11-25T11:39:59.960Z,98441.83
2023-11-25T11:42:34.733Z,98448.70
2023-11-25T11:45:19.221Z,98447.80
2023-11-25T11:47:57.248Z,98451.49
2023-11-25T11:50:35.347Z,98447.95
2023-11-25T11:53:14.373Z,98452.50
2023-11-25T11:55:55.227Z,98451.23
2023-11-25T11:58:29.029Z,98446.53
2023-11-25T12:01:08.367Z,98460.23
2023-11-25T12:03:41.479Z,98453.55
2023-11-25T12:06:17.202Z,98442.58
2023-11-25T12:08:51.241Z,98449.32
2023-11-25T12:11:23.775Z,98439.00
2023-11-25T12:13:56.171Z,98447.50
2023-11-25T12:16:28.715Z,98450.66
2023-11-25T12:19:01.824Z,98452.75
2023-11-25T12:21:36.338Z,98441.94
2023-11-25T12:24:16.038Z,98443.59
2023-11-25T12:26:51.469Z,98442.91
2023-11-25T12:29:26.120Z,98450.77
2023-11-25T12:31:58.754Z,98454.13
2023-11-25T12:34:31.544Z,98447.00
2023-11-25T12:37:04.615Z,98435.33
2023-11-25T12:39:37.370Z,98429.27
2023-11-25T12:42:12.235Z,98430.91
2023-11-25T12:44:52.747Z,98431.66
2023-11-25T12:47:25.726Z,98439.98
2023-11-25T12:50:07.437Z,98440.28
2023-11-25T12:52:40.368Z,98446.11
2023-11-25T12:55:13.884Z,98442.13
2023-11-25T12:57:46.816Z,98436.44
2023-11-25T13:00:20.732Z,98436.84
2023-11-25T13:02:54.455Z,98436.94
2023-11-25T13:05:27.566Z,98437.95
2023-11-25T13:08:01.541Z,98446.98
2023-11-25T13:10:34.481Z,98442.76
2023-11-25T13:13:07.148Z,98451.59
2023-11-25T13:15:41.230Z,98459.99
2023-11-25T13:18:13.606Z,98458.98
2023-11-25T13:20:46.795Z,98455.24
2023-11-25T13:23:21.319Z,98458.94
2023-11-25T13:25:53.856Z,98452.84
2023-11-25T13:28:27.406Z,98451.02
2023-11-25T13:30:59.942Z,98450.78
2023-11-25T13:33:32.684Z,98446.75
2023-11-25T13:36:06.769Z,98448.09
2023-11-25T13:38:40.365Z,98450.05
2023-11-25T13:41:13.544Z,98449.96
2023-11-25T13:43:47.712Z,98448.77
2023-11-25T13:46:21.136Z,98452.41
2023-11-25T13:48:53.717Z,98441.31
2023-11-25T13:51:27.032Z,98443.51
2023-11-25T13:53:59.488Z,98448.73
2023-11-25T13:56:32.099Z,98452.29
2023-11-25T13:59:04.566Z,98448.55
2023-11-25T14:01:38.412Z,98453.43
2023-11-25T14:04:10.997Z,98449.83
2023-11-25T14:06:44.689Z,98445.80
2023-11-25T14:09:19.257Z,98451.80
2023-11-25T14:11:52.518Z,98454.86
2023-11-25T14:14:24.930Z,98458.23
2023-11-25T14:17:00.375Z,98459.63
2023-11-25T14:19:33.450Z,98455.98
2023-11-25T14:22:07.006Z,98457.89
2023-11-25T14:24:40.024Z,98454.14
2023-11-25T14:27:12.663Z,98455.28
2023-11-25T14:29:45.894Z,98464.55
2023-11-25T14:32:18.691Z,98465.31
2023-11-25T14:34:51.672Z,98456.67
2023-11-25T14:37:24.147Z,98444.53
2023-11-25T14:40:01.282Z,98450.42
2023-11-25T14:42:35.157Z,98442.64
2023-11-25T14:45:09.447Z,98452.32
2023-11-25T14:47:43.263Z,98459.39
2023-11-25T14:50:16.818Z,98455.98
2023-11-25T14:52:50.315Z,98463.05
2023-11-25T14:55:23.430Z,98467.08
2023-11-25T14:57:57.694Z,98477.41
2023-11-25T15:00:31.472Z,98481.38
2023-11-25T15:03:05.524Z,98471.80
2023-11-25T15:05:40.197Z,98471.67
2023-11-25T15:08:13.567Z,98467.13
2023-11-25T15:10:48.152Z,98464.14
2023-11-25T15:13:22.464Z,98471.63
2023-11-25T15:15:55.129Z,98481.12
2023-11-25T15:18:29.669Z,98479.02
2023-11-25T15:21:03.694Z,98487.68
2023-11-25T15:23:41.389Z,98482.45
2023-11-25T15:26:14.353Z,98482.64
2023-11-25T15:28:50.139Z,98486.34
2023-11-25T15:31:22.110Z,98476.19
2023-11-25T15:33:54.661Z,98468.03
2023-11-25T15:36:28.996Z,98470.64
2023-11-25T15:39:03.829Z,98474.58
2023-11-25T15:41:36.979Z,98480.93
2023-11-25T15:44:09.697Z,98477.88
2023-11-25T15:46:42.443Z,98474.25
2023-11-25T15:49:15.018Z,98489.52
2023-11-25T15:51:49.236Z,98494.14
2023-11-25T15:54:22.588Z,98496.27
2023-11-25T15:56:56.347Z,98490.92
2023-11-25T15:59:31.050Z,98489.41
2023-11-25T16:02:04.048Z,98479.81
2023-11-25T16:04:38.654Z,98478.95
2023-11-25T16:07:13.336Z,98487.39
2023-11-25T16:09:46.771Z,98489.20
2023-11-25T16:12:19.521Z,98489.20
2023-11-25T16:14:52.393Z,98496.98
2023-11-25T16:17:26.010Z,98498.70
2023-11-25T16:19:58.929Z,98498.33
2023-11-25T16:22:31.876Z,98487.52
2023-11-25T16:25:06.241Z,98489.20
2023-11-25T16:27:39.066Z,98493.52
2023-11-25T16:30:13.658Z,98500.22
2023-11-25T16:32:47.008Z,98506.92
2023-11-25T16:35:20.361Z,98503.38
2023-11-25T16:37:54.085Z,98512.28
2023-11-25T16:40:28.255Z,98512.89
2023-11-25T16:43:02.792Z,98494.39
2023-11-25T16:45:38.433Z,98507.06
2023-11-25T16:48:11.282Z,98504.55
2023-11-25T16:50:44.117Z,98503.03
2023-11-25T16:53:18.134Z,98495.86
2023-11-25T16:55:51.545Z,98494.78
2023-11-25T16:58:24.930Z,98498.32
2023-11-25T17:00:58.069Z,98497.84
2023-11-25T17:03:31.074Z,98501.13
2023-11-25T17:06:06.832Z,98495.30
2023-11-25T17:08:40.402Z,98495.94
2023-11-25T17:11:13.326Z,98490.70
2023-11-25T17:13:46.291Z,98496.92
2023-11-25T17:16:20.577Z,98508.24
2023-11-25T17:18:54.476Z,98511.91
2023-11-25T17:21:27.120Z,98513.72
2023-11-25T17:24:00.701Z,98513.38
2023-11-25T17:26:34.091Z,98501.45
2023-11-25T17:29:06.806Z,98520.33
2023-11-25T17:31:39.900Z,98513.50
2023-11-25T17:34:12.772Z,98516.18
2023-11-25T17:39:30.076Z,98509.11
2023-11-25T17:42:04.657Z,98519.81
2023-11-25T17:44:37.862Z,98523.48
2023-11-25T17:47:10.571Z,98520.07
2023-11-25T17:49:43.092Z,98507.03
2023-11-25T17:52:17.603Z,98511.17
2023-11-25T17:54:51.230Z,98496.95
2023-11-25T17:57:23.926Z,98508.53
2023-11-25T17:59:56.442Z,98506.68
2023-11-25T18:02:29.160Z,98503.66
2023-11-25T18:05:04.722Z,98507.67
2023-11-25T18:07:45.198Z,98509.74
2023-11-25T18:10:17.996Z,98506.55
2023-11-25T18:12:50.766Z,98520.55
2023-11-25T18:15:23.740Z,98512.86
2023-11-25T18:17:56.829Z,98519.21
2023-11-25T18:20:29.925Z,98512.52
2023-11-25T18:23:03.033Z,98514.45
2023-11-25T18:25:35.822Z,98517.70
2023-11-25T18:28:08.347Z,98509.55
2023-11-25T18:30:43.756Z,98501.38
2023-11-25T18:33:17.365Z,98500.05
2023-11-25T18:35:51.122Z,98505.75
2023-11-25T18:38:24.629Z,98501.98
2023-11-25T18:40:57.582Z,98504.28
2023-11-25T18:43:33.751Z,98507.60
2023-11-25T18:46:06.977Z,98508.20
2023-11-25T18:48:41.399Z,98506.77
2023-11-25T18:51:13.789Z,98504.67
2023-11-25T18:53:46.861Z,98504.31
2023-11-25T18:56:19.513Z,98508.11
2023-11-25T18:58:52.273Z,98509.58
2023-11-25T19:01:36.004Z,98513.95
2023-11-25T19:04:09.367Z,98498.87
2023-11-25T19:06:41.924Z,98506.17
2023-11-25T19:09:16.762Z,98515.67
2023-11-25T19:11:53.710Z,98516.79
2023-11-25T19:14:26.659Z,98516.47
2023-11-25T19:17:00.154Z,98514.17
2023-11-25T19:19:33.186Z,98523.45
2023-11-25T19:22:10.776Z,98533.67
2023-11-25T19:24:41.913Z,98529.05
2023-11-25T19:27:14.226Z,98539.88
2023-11-25T19:29:47.869Z,98550.97
2023-11-25T19:32:23.833Z,98548.29
2023-11-25T19:35:00.855Z,98535.73
2023-11-25T19:37:34.444Z,98535.13
2023-11-25T19:40:10.818Z,98544.38
2023-11-25T19:42:44.009Z,98550.22
2023-11-25T19:45:18.604Z,98543.75
2023-11-25T19:47:51.174Z,98556.38
2023-11-25T19:50:24.524Z,98546.75
2023-11-25T19:52:57.696Z,98547.48
2023-11-25T19:55:31.647Z,98543.47
2023-11-25T19:58:05.211Z,98542.83
2023-11-25T20:00:48.946Z,98543.22
2023-11-25T20:03:12.692Z,98552.33
2023-11-25T20:05:46.854Z,98549.66
2023-11-25T20:08:20.882Z,98541.49
2023-11-25T20:10:53.951Z,98538.69
2023-11-25T20:13:26.634Z,98532.70
2023-11-25T20:15:59.720Z,98534.52
2023-11-25T20:18:32.750Z,98535.09
2023-11-25T20:21:05.327Z,98533.62
2023-11-25T20:23:38.093Z,98534.95
2023-11-25T20:26:11.414Z,98533.88
2023-11-25T20:28:44.558Z,98522.36
2023-11-25T20:31:17.377Z,98522.63
2023-11-25T20:33:50.359Z,98521.89
2023-11-25T20:36:24.162Z,98515.92
2023-11-25T20:38:57.750Z,98513.28
2023-11-25T20:41:30.723Z,98505.34
2023-11-25T20:44:04.006Z,98510.57
2023-11-25T20:46:36.702Z,98504.29
2023-11-25T20:49:09.560Z,98505.88
2023-11-25T20:51:44.278Z,98502.73
2023-11-25T20:54:18.055Z,98503.72
2023-11-25T20:56:50.869Z,98499.60
2023-11-25T20:59:23.695Z,98504.83
2023-11-25T21:01:57.604Z,98502.78
2023-11-25T21:04:31.179Z,98514.95
2023-11-25T21:07:04.369Z,98510.72
2023-11-25T21:09:36.903Z,98502.91
2023-11-25T21:12:11.778Z,98502.66
2023-11-25T21:14:44.457Z,98498.27
2023-11-25T21:17:17.282Z,98493.48
2023-11-25T21:19:49.893Z,98497.05
2023-11-25T21:22:22.535Z,98494.02
2023-11-25T21:24:56.294Z,98501.70
2023-11-25T21:27:30.421Z,98495.84
2023-11-25T21:30:05.577Z,98480.61
2023-11-25T21:32:41.655Z,98475.83
2023-11-25T21:35:14.751Z,98464.64
2023-11-25T21:37:48.030Z,98465.88
2023-11-25T21:40:23.777Z,98473.56
2023-11-25T21:42:55.636Z,98469.33
2023-11-25T21:45:28.499Z,98469.36
2023-11-25T21:48:01.603Z,98466.80
2023-11-25T21:50:34.475Z,98462.69
2023-11-25T21:53:07.537Z,98461.37
2023-11-25T21:55:41.035Z,98471.47
2023-11-25T21:58:14.223Z,98464.20
2023-11-25T22:00:46.744Z,98463.98
2023-11-25T22:03:19.377Z,98462.77
2023-11-25T22:05:52.026Z,98461.18
2023-11-25T22:08:24.534Z,98461.88
2023-11-25T22:11:00.030Z,98467.23
2023-11-25T22:13:32.955Z,98473.45
2023-11-25T22:16:05.881Z,98463.22
2023-11-25T22:18:38.837Z,98458.12
2023-11-25T22:21:11.289Z,98469.07
2023-11-25T22:23:45.532Z,98465.81
2023-11-25T22:26:22.989Z,98477.74
2023-11-25T22:28:55.580Z,98478.64
2023-11-25T22:31:28.350Z,98466.73
2023-11-25T22:34:00.989Z,98466.15
2023-11-25T22:36:33.919Z,98453.61
2023-11-25T22:39:08.173Z,98460.06
2023-11-25T22:41:41.214Z,98454.50
2023-11-25T22:44:13.993Z,98446.35
2023-11-25T22:46:46.542Z,98438.83
2023-11-25T22:49:18.948Z,98436.55
2023-11-25T22:51:51.486Z,98437.27
2023-11-25T22:54:24.621Z,98447.09
2023-11-25T22:56:59.048Z,98441.39
2023-11-25T22:59:33.016Z,98439.09
2023-11-25T23:02:07.768Z,98440.06
2023-11-25T23:04:40.735Z,98450.02
2023-11-25T23:07:13.258Z,98449.89
2023-11-25T23:09:45.940Z,98444.67
2023-11-25T23:12:19.797Z,98443.84
2023-11-25T23:14:52.779Z,98452.45
2023-11-25T23:17:26.886Z,98458.14
2023-11-25T23:19:59.505Z,98459.88
2023-11-25T23:22:32.066Z,98459.84
2023-11-25T23:25:04.715Z,98458.52
2023-11-25T23:27:38.186Z,98460.84
2023-11-25T23:30:11.830Z,98470.78
2023-11-25T23:32:44.642Z,98472.70
2023-11-25T23:35:17.310Z,98473.09
2023-11-25T23:37:49.975Z,98470.54
2023-11-25T23:40:22.628Z,98467.63
2023-11-25T23:42:55.320Z,98458.52
2023-11-25T23:45:27.909Z,98454.39
2023-11-25T23:48:00.503Z,98447.11
2023-11-25T23:50:33.023Z,98450.73
2023-11-25T23:53:05.631Z,98438.36
2023-11-25T23:55:38.754Z,98421.23
2023-11-25T23:58:11.616Z,98428.42
